Portland, Michigan
Current Conditions -  °F | °C
As of 8:13 PM on Wednesday 26 Nov 2014 (Local Time) from KY70 Reporting Station
Overcast Overcast  
Wind Chill: 25°   Ceiling: 3300
Heat Index: 29°   Visibility: 10mi
Dew Point: 23°   Wind: 5mph
Humidity: 76%   Direction: 360°N
Pressure: 30.1"   Gusts: NA
Location:  42.87°N, 84.9°W
Report Text: KY70 270113Z AUTO 36004KT 10SM OVC033 M01/M05 A3010 RMK AO2 T10141051
Loading
Personal Weather Stations






























Interactive Weather Map New forecast layout! Learn more

10-Day Weather Forecast

Advertisements
Track Severe Weather on mobile